Time;durP1;ratioP1;P1;durP2;ratioP2;P2;SDS_P1;SDS_P2;PMS_P1;PMS_P2;Temp;Humidity;BMP_temperature;BMP_pressure;BME280_temperature;BME280_humidity;BME280_pressure;Samples;Min_cycle;Max_cycle;Signal;HPM_P1;HPM_P2
2023/05/08 00:01:33;;;;;;;12.10;10.95;;;12.40;99.90;;;;;;5044506;28;20396;-80
2023/05/08 00:03:59;;;;;;;12.13;10.77;;;12.40;99.90;;;;;;5047079;28;20037;-80
2023/05/08 00:06:26;;;;;;;12.95;11.63;;;12.40;99.90;;;;;;5043755;28;20561;-80
2023/05/08 00:08:53;;;;;;;13.10;12.10;;;12.40;99.90;;;;;;5045717;28;20503;-80
2023/05/08 00:11:18;;;;;;;12.73;11.50;;;12.30;99.90;;;;;;5044341;28;20041;-80
2023/05/08 00:13:44;;;;;;;13.02;11.73;;;12.20;99.90;;;;;;5043038;28;20464;-80
2023/05/08 00:16:11;;;;;;;13.02;11.93;;;12.20;99.90;;;;;;5041526;28;20457;-80
2023/05/08 00:18:37;;;;;;;13.35;12.20;;;12.20;99.90;;;;;;5041817;28;20041;-80
2023/05/08 00:21:03;;;;;;;12.48;11.48;;;12.00;99.90;;;;;;5041414;28;20128;-80
2023/05/08 00:23:29;;;;;;;12.88;11.75;;;12.10;99.90;;;;;;5046425;28;20072;-80
2023/05/08 00:25:55;;;;;;;13.65;12.35;;;12.10;99.90;;;;;;5044505;28;20049;-80
2023/05/08 00:28:20;;;;;;;14.15;12.95;;;12.00;99.90;;;;;;5074434;28;20048;-80
2023/05/08 00:30:46;;;;;;;13.10;11.98;;;12.10;99.90;;;;;;5046037;28;20041;-80
2023/05/08 00:33:11;;;;;;;13.15;11.95;;;12.00;99.90;;;;;;5042458;28;20052;-80
2023/05/08 00:35:37;;;;;;;16.10;12.95;;;12.00;99.90;;;;;;5043270;28;20044;-80
2023/05/08 00:38:03;;;;;;;12.82;11.52;;;12.00;99.90;;;;;;5043535;28;20045;-80
2023/05/08 00:40:28;;;;;;;14.10;12.90;;;12.10;99.90;;;;;;5039406;28;20041;-80
2023/05/08 00:42:54;;;;;;;13.80;12.40;;;12.00;99.90;;;;;;5044159;28;20124;-80
2023/05/08 00:45:19;;;;;;;14.60;13.30;;;12.00;99.90;;;;;;5047693;28;20045;-80
2023/05/08 00:47:45;;;;;;;14.00;12.77;;;12.00;99.90;;;;;;5043620;28;20041;-80
2023/05/08 00:50:11;;;;;;;13.52;12.30;;;11.90;99.90;;;;;;5045221;28;20037;-80
2023/05/08 00:52:37;;;;;;;13.55;12.25;;;11.90;99.90;;;;;;5042442;28;20052;-80
2023/05/08 00:55:04;;;;;;;14.07;12.68;;;11.90;99.90;;;;;;5041382;28;20056;-80
2023/05/08 00:57:34;;;;;;;13.88;12.77;;;11.90;99.90;;;;;;5043099;28;20484;-80
2023/05/08 01:00:01;;;;;;;13.93;12.55;;;11.90;99.90;;;;;;5042317;28;20083;-80
2023/05/08 01:02:27;;;;;;;13.88;12.32;;;11.90;99.90;;;;;;5042788;28;20049;-80
2023/05/08 01:04:54;;;;;;;15.63;14.13;;;11.80;99.90;;;;;;5043551;28;20041;-80
2023/05/08 01:07:20;;;;;;;14.00;12.80;;;11.80;99.90;;;;;;5043262;28;20499;-80
2023/05/08 01:09:46;;;;;;;14.98;13.48;;;11.80;99.90;;;;;;5043948;28;20090;-80
2023/05/08 01:12:44;;;;;;;13.98;12.77;;;11.70;99.90;;;;;;5046470;28;20136;-80
2023/05/08 01:15:31;;;;;;;14.20;13.10;;;11.70;99.90;;;;;;5048441;28;20474;-80
2023/05/08 01:18:31;;;;;;;13.98;12.68;;;11.70;99.90;;;;;;5043476;28;20423;-80
2023/05/08 01:21:10;;;;;;;13.30;12.10;;;11.70;99.90;;;;;;5041804;28;20077;-80
2023/05/08 01:23:55;;;;;;;13.45;12.25;;;11.70;99.90;;;;;;5043905;28;20045;-80
2023/05/08 01:26:46;;;;;;;14.68;13.38;;;11.60;99.90;;;;;;5056748;28;20045;-80
2023/05/08 01:29:28;;;;;;;13.77;12.38;;;11.50;99.90;;;;;;5038704;28;20700;-80
2023/05/08 01:32:18;;;;;;;14.85;13.35;;;11.60;99.90;;;;;;5038271;28;20038;-80
2023/05/08 01:34:57;;;;;;;14.57;13.32;;;11.50;99.90;;;;;;5038991;28;20037;-80
2023/05/08 01:37:44;;;;;;;14.23;13.10;;;11.40;99.90;;;;;;5028823;28;20041;-80
2023/05/08 01:40:23;;;;;;;14.65;13.25;;;11.40;99.90;;;;;;5037400;28;20087;-80
2023/05/08 01:43:09;;;;;;;14.52;13.30;;;11.40;99.90;;;;;;5040266;28;20068;-80
2023/05/08 01:45:39;;;;;;;14.73;13.43;;;11.30;99.90;;;;;;5038993;28;20041;-80
2023/05/08 01:48:10;;;;;;;14.23;12.93;;;11.30;99.90;;;;;;5037927;28;20045;-80
2023/05/08 01:51:00;;;;;;;14.73;13.52;;;11.30;99.90;;;;;;5040163;28;20040;-80
2023/05/08 01:53:35;;;;;;;14.40;12.93;;;11.20;99.90;;;;;;5037710;28;20045;-80
2023/05/08 01:56:10;;;;;;;14.70;13.37;;;11.20;99.90;;;;;;5041356;28;20064;-80
2023/05/08 01:58:37;;;;;;;14.38;13.07;;;11.10;99.90;;;;;;5038422;28;20041;-80
2023/05/08 02:01:03;;;;;;;15.95;14.45;;;11.10;99.90;;;;;;5038378;28;20373;-80
2023/05/08 02:03:31;;;;;;;16.25;14.52;;;11.00;99.90;;;;;;5042823;28;20075;-80
2023/05/08 02:05:59;;;;;;;14.60;13.32;;;11.00;99.90;;;;;;5047519;28;20037;-80
2023/05/08 02:08:27;;;;;;;14.63;13.40;;;10.90;99.90;;;;;;5041089;28;20041;-80
2023/05/08 02:10:55;;;;;;;15.85;14.35;;;11.00;99.90;;;;;;5039871;28;20038;-80
2023/05/08 02:13:22;;;;;;;15.70;14.23;;;11.00;99.90;;;;;;5042375;28;20037;-80
2023/05/08 02:15:49;;;;;;;14.98;13.63;;;10.90;99.90;;;;;;5047225;28;20047;-80
2023/05/08 02:18:19;;;;;;;15.05;13.85;;;10.90;99.90;;;;;;5058984;28;20037;-80
2023/05/08 02:20:46;;;;;;;15.20;13.90;;;10.90;99.90;;;;;;5041366;28;20168;-80
2023/05/08 02:23:13;;;;;;;15.77;14.38;;;10.90;99.90;;;;;;5045345;28;20033;-80
2023/05/08 02:25:40;;;;;;;15.15;13.85;;;10.90;99.90;;;;;;5043959;28;20053;-80
2023/05/08 02:28:06;;;;;;;15.43;14.07;;;10.80;99.90;;;;;;5042981;28;20075;-80
2023/05/08 02:30:32;;;;;;;15.57;14.07;;;10.80;99.90;;;;;;5043886;28;20169;-80
2023/05/08 02:32:59;;;;;;;15.07;13.68;;;10.70;99.90;;;;;;5044262;28;20041;-80
2023/05/08 02:35:28;;;;;;;16.58;14.95;;;10.70;99.90;;;;;;5045007;28;20663;-80
2023/05/08 02:37:56;;;;;;;14.85;13.65;;;10.70;99.90;;;;;;5045682;28;20049;-80
2023/05/08 02:40:26;;;;;;;15.50;14.00;;;10.70;99.90;;;;;;5049803;28;20086;-80
2023/05/08 02:42:52;;;;;;;15.77;14.27;;;10.60;99.90;;;;;;5044372;28;20048;-80
2023/05/08 02:45:18;;;;;;;14.43;12.93;;;10.60;99.90;;;;;;5040082;28;20431;-80
2023/05/08 02:48:09;;;;;;;15.98;14.65;;;10.70;99.90;;;;;;5042723;28;20076;-80
2023/05/08 02:50:42;;;;;;;14.27;13.07;;;10.60;99.90;;;;;;5028554;28;20478;-80
2023/05/08 02:53:15;;;;;;;14.90;13.50;;;10.60;99.90;;;;;;5043116;28;20079;-80
2023/05/08 02:55:56;;;;;;;13.90;12.70;;;10.60;99.90;;;;;;5072702;28;20052;-80
2023/05/08 02:58:58;;;;;;;13.95;12.73;;;10.60;99.90;;;;;;5043602;28;20816;-80
2023/05/08 03:01:30;;;;;;;15.60;14.23;;;10.50;99.90;;;;;;5044261;28;20056;-80
2023/05/08 03:04:06;;;;;;;14.65;13.40;;;10.60;99.90;;;;;;5043404;28;20048;-80
2023/05/08 03:06:39;;;;;;;15.32;14.02;;;10.50;99.90;;;;;;5040894;28;20087;-80
2023/05/08 03:09:06;;;;;;;14.65;13.45;;;10.50;99.90;;;;;;5043881;28;20041;-80
2023/05/08 03:11:38;;;;;;;15.65;14.25;;;10.50;99.90;;;;;;5059327;28;20133;-80
2023/05/08 03:14:08;;;;;;;15.95;14.60;;;10.50;99.90;;;;;;5042740;28;20136;-80
2023/05/08 03:16:35;;;;;;;14.82;13.43;;;10.50;99.90;;;;;;5042677;28;20056;-80
2023/05/08 03:19:06;;;;;;;15.48;14.07;;;10.50;99.90;;;;;;5044752;28;21005;-80
2023/05/08 03:21:33;;;;;;;14.68;13.23;;;10.50;99.90;;;;;;5042583;28;20033;-80
2023/05/08 03:24:00;;;;;;;15.57;14.07;;;10.50;99.90;;;;;;5043355;28;20071;-80
2023/05/08 03:26:26;;;;;;;16.67;15.25;;;10.50;99.90;;;;;;5043535;28;20121;-80
2023/05/08 03:28:55;;;;;;;15.00;13.38;;;10.40;99.90;;;;;;5043301;28;20200;-80
2023/05/08 03:31:22;;;;;;;15.35;13.93;;;10.40;99.90;;;;;;5043380;28;20040;-80
2023/05/08 03:33:51;;;;;;;16.02;14.55;;;10.40;99.90;;;;;;5045224;28;20045;-80
2023/05/08 03:36:17;;;;;;;15.52;14.23;;;10.40;99.90;;;;;;5043561;28;20037;-80
2023/05/08 03:38:42;;;;;;;16.13;14.63;;;10.40;99.90;;;;;;5040348;28;20050;-80
2023/05/08 03:41:08;;;;;;;15.80;14.25;;;10.30;99.90;;;;;;5040921;28;21774;-80
2023/05/08 03:43:36;;;;;;;15.30;14.00;;;10.30;99.90;;;;;;5040063;28;20045;-80
2023/05/08 03:46:03;;;;;;;14.85;13.43;;;10.40;99.90;;;;;;5043114;28;20048;-80
2023/05/08 03:48:33;;;;;;;15.23;13.82;;;10.30;99.90;;;;;;5041667;28;20045;-80
2023/05/08 03:51:01;;;;;;;15.25;13.95;;;10.30;99.90;;;;;;5044900;28;20055;-80
2023/05/08 03:53:31;;;;;;;14.93;13.63;;;10.30;99.90;;;;;;5041648;28;20042;-80
2023/05/08 03:55:58;;;;;;;15.55;14.00;;;10.30;99.90;;;;;;5040517;28;20041;-80
2023/05/08 03:58:44;;;;;;;16.13;14.80;;;10.20;99.90;;;;;;5041694;28;20033;-80
2023/05/08 04:01:20;;;;;;;15.07;13.77;;;10.20;99.90;;;;;;5040268;28;20040;-80
2023/05/08 04:03:54;;;;;;;16.25;14.82;;;10.20;99.90;;;;;;5040096;28;20547;-80
2023/05/08 04:06:44;;;;;;;15.85;14.40;;;10.10;99.90;;;;;;5057120;28;20048;-80
2023/05/08 04:09:26;;;;;;;15.93;14.60;;;10.10;99.90;;;;;;5042861;28;21058;-79
2023/05/08 04:12:02;;;;;;;15.32;13.93;;;10.20;99.90;;;;;;5044022;28;20040;-80
2023/05/08 04:14:36;;;;;;;15.50;14.15;;;10.10;99.90;;;;;;5043276;28;20044;-79
2023/05/08 04:17:06;;;;;;;14.50;13.15;;;10.10;99.90;;;;;;5040049;28;20036;-79
2023/05/08 04:19:34;;;;;;;15.77;14.27;;;10.10;99.90;;;;;;5045944;28;20130;-80
2023/05/08 04:22:06;;;;;;;15.30;13.90;;;10.10;99.90;;;;;;5041821;28;20056;-81
2023/05/08 04:24:35;;;;;;;16.70;14.80;;;10.10;99.90;;;;;;5043681;28;20037;-80
2023/05/08 04:27:02;;;;;;;15.18;13.93;;;10.20;99.90;;;;;;5040631;28;20041;-79
2023/05/08 04:29:28;;;;;;;16.70;12.80;;;10.30;99.90;;;;;;5042339;28;20072;-81
2023/05/08 04:31:55;;;;;;;14.55;13.25;;;10.60;99.90;;;;;;5044009;28;20367;-81
2023/05/08 04:34:20;;;;;;;13.95;12.63;;;10.70;99.90;;;;;;5043462;28;20492;-79
2023/05/08 04:36:47;;;;;;;12.85;11.75;;;10.80;99.90;;;;;;5062073;28;20040;-81
2023/05/08 04:39:13;;;;;;;13.23;12.15;;;11.00;99.90;;;;;;5042771;28;20130;-81
2023/05/08 04:41:38;;;;;;;12.13;10.88;;;11.60;99.90;;;;;;5046364;28;20235;-81
2023/05/08 04:44:04;;;;;;;17.77;12.07;;;11.90;99.90;;;;;;5043112;28;20039;-80
2023/05/08 04:46:30;;;;;;;11.60;10.60;;;12.00;99.90;;;;;;5042395;28;20048;-79
2023/05/08 04:48:55;;;;;;;11.45;10.35;;;12.30;99.90;;;;;;5039607;28;20129;-80
2023/05/08 04:51:21;;;;;;;10.68;9.80;;;12.70;99.90;;;;;;5075195;28;20041;-79
2023/05/08 04:53:47;;;;;;;11.85;10.85;;;12.60;99.90;;;;;;5038750;28;20037;-79
2023/05/08 04:56:12;;;;;;;10.10;9.30;;;12.80;99.90;;;;;;5040470;28;20049;-80
2023/05/08 04:58:38;;;;;;;10.25;9.35;;;12.80;99.90;;;;;;5039896;28;20056;-80
2023/05/08 05:01:04;;;;;;;11.05;10.15;;;12.90;99.90;;;;;;5041175;28;20037;-81
2023/05/08 05:03:30;;;;;;;10.52;9.43;;;13.00;99.90;;;;;;5044196;28;20072;-81
2023/05/08 05:05:59;;;;;;;10.60;9.70;;;13.20;99.90;;;;;;5043781;28;20400;-81
2023/05/08 05:08:25;;;;;;;10.30;9.50;;;13.40;99.90;;;;;;5041928;28;20099;-81
2023/05/08 05:10:51;;;;;;;9.73;8.75;;;13.90;99.90;;;;;;5043749;28;20183;-81
2023/05/08 05:13:18;;;;;;;9.65;8.75;;;14.30;99.90;;;;;;5057297;28;20544;-81
2023/05/08 05:15:44;;;;;;;10.50;8.35;;;14.60;99.90;;;;;;5047507;28;20055;-80
2023/05/08 05:18:10;;;;;;;8.40;7.70;;;15.30;99.90;;;;;;5059944;28;20041;-81
2023/05/08 05:20:36;;;;;;;9.00;8.20;;;16.00;99.90;;;;;;5058439;28;20096;-81
2023/05/08 05:23:01;;;;;;;8.70;7.90;;;16.70;99.90;;;;;;5034869;28;20075;-81
2023/05/08 05:25:27;;;;;;;9.13;7.47;;;17.10;99.90;;;;;;5041977;28;20488;-80
2023/05/08 05:27:53;;;;;;;7.90;7.20;;;17.80;99.90;;;;;;5039153;28;20203;-81
2023/05/08 05:30:18;;;;;;;7.57;6.82;;;18.20;99.90;;;;;;5039403;28;20128;-81
2023/05/08 05:32:44;;;;;;;8.13;7.22;;;18.70;99.90;;;;;;5035675;28;20606;-81
2023/05/08 05:35:10;;;;;;;8.00;6.93;;;19.00;99.90;;;;;;5057789;28;20049;-81
2023/05/08 05:37:36;;;;;;;7.32;6.60;;;19.40;99.90;;;;;;5039470;28;20063;-81
2023/05/08 05:40:02;;;;;;;7.55;6.93;;;19.80;99.90;;;;;;5038146;28;20049;-80
2023/05/08 05:42:27;;;;;;;9.23;7.13;;;19.70;99.90;;;;;;5038677;28;20374;-79
2023/05/08 05:44:53;;;;;;;7.38;6.43;;;19.70;99.90;;;;;;5037037;28;20045;-80
2023/05/08 05:47:19;;;;;;;7.47;6.78;;;19.90;99.90;;;;;;5041085;28;20040;-80
2023/05/08 05:49:46;;;;;;;7.03;6.45;;;20.00;99.90;;;;;;5048645;28;20049;-80
2023/05/08 05:52:12;;;;;;;10.10;6.70;;;20.40;99.90;;;;;;5042724;28;20041;-80
2023/05/08 05:54:38;;;;;;;7.30;6.80;;;21.00;99.90;;;;;;5042184;28;20044;-80
2023/05/08 05:57:04;;;;;;;6.15;5.75;;;21.00;99.90;;;;;;5043335;28;20045;-80
2023/05/08 05:59:29;;;;;;;7.22;6.57;;;21.80;99.90;;;;;;5045746;28;20051;-80
2023/05/08 06:01:55;;;;;;;7.18;6.53;;;21.70;99.90;;;;;;5045476;28;20044;-81
2023/05/08 06:04:20;;;;;;;8.68;7.22;;;21.10;99.90;;;;;;5045131;28;20033;-81
2023/05/08 06:06:46;;;;;;;6.78;6.28;;;20.60;99.90;;;;;;5045532;28;20041;-80
2023/05/08 06:09:12;;;;;;;7.05;6.50;;;20.20;99.90;;;;;;5047936;28;20041;-81
2023/05/08 06:11:37;;;;;;;8.00;7.32;;;19.50;99.90;;;;;;5035114;28;20088;-81
2023/05/08 06:14:03;;;;;;;8.05;7.45;;;18.80;99.90;;;;;;5043814;28;20060;-80
2023/05/08 06:16:29;;;;;;;7.57;6.97;;;18.40;99.90;;;;;;5045531;28;20403;-80
2023/05/08 06:18:55;;;;;;;7.38;6.78;;;17.60;99.90;;;;;;5041807;28;20056;-80
2023/05/08 06:21:20;;;;;;;7.68;7.07;;;17.50;99.90;;;;;;5047806;28;20041;-79
2023/05/08 06:23:46;;;;;;;7.50;6.90;;;17.40;99.90;;;;;;5046490;28;20076;-79
2023/05/08 06:26:12;;;;;;;7.45;6.85;;;17.20;99.90;;;;;;5075463;28;20033;-79
2023/05/08 06:28:37;;;;;;;7.70;7.10;;;17.00;99.90;;;;;;5046461;28;20071;-80
2023/05/08 06:31:03;;;;;;;7.47;6.78;;;17.30;99.90;;;;;;5046530;28;20052;-80
2023/05/08 06:33:28;;;;;;;7.57;6.97;;;17.30;99.90;;;;;;5046521;28;20038;-79
2023/05/08 06:35:54;;;;;;;8.55;7.15;;;17.20;99.90;;;;;;5046500;28;20658;-80
2023/05/08 06:38:23;;;;;;;9.05;6.95;;;17.00;99.90;;;;;;5047004;28;20504;-80
2023/05/08 06:40:49;;;;;;;7.00;6.45;;;16.90;99.90;;;;;;5043835;28;20075;-80
2023/05/08 06:43:15;;;;;;;7.80;7.10;;;16.70;99.90;;;;;;5045564;28;20041;-80
2023/05/08 06:45:42;;;;;;;7.68;6.97;;;16.50;99.90;;;;;;5046456;28;20044;-81
2023/05/08 06:48:08;;;;;;;7.43;6.82;;;16.50;99.90;;;;;;5061418;28;20049;-80
2023/05/08 06:50:36;;;;;;;7.95;7.15;;;16.60;99.90;;;;;;5046022;28;20044;-80
2023/05/08 06:53:01;;;;;;;7.65;6.93;;;16.70;99.90;;;;;;5042602;28;20128;-80
2023/05/08 06:55:27;;;;;;;7.70;7.10;;;16.50;99.90;;;;;;5045005;28;20129;-80
2023/05/08 06:57:52;;;;;;;8.70;8.00;;;16.40;99.90;;;;;;5045805;28;20045;-80
2023/05/08 07:00:18;;;;;;;7.75;7.05;;;16.10;99.90;;;;;;5042276;28;20042;-80
2023/05/08 07:02:43;;;;;;;8.30;7.57;;;15.80;99.90;;;;;;5046524;28;20059;-80
2023/05/08 07:05:09;;;;;;;9.85;8.23;;;15.50;99.90;;;;;;5044414;28;20037;-80
2023/05/08 07:07:35;;;;;;;8.50;7.65;;;15.50;99.90;;;;;;5046127;28;20049;-80
2023/05/08 07:10:00;;;;;;;8.63;7.85;;;15.50;99.90;;;;;;5041836;28;20052;-81
2023/05/08 07:12:26;;;;;;;10.48;7.63;;;15.50;99.90;;;;;;5042647;28;20565;-80
2023/05/08 07:14:52;;;;;;;13.57;8.70;;;15.60;99.90;;;;;;5045313;28;20051;-80
2023/05/08 07:17:17;;;;;;;9.00;7.80;;;15.60;99.90;;;;;;5043627;28;20071;-79
2023/05/08 07:19:43;;;;;;;8.00;7.35;;;15.70;99.90;;;;;;5042695;28;20045;-80
2023/05/08 07:22:08;;;;;;;8.38;7.63;;;15.90;99.90;;;;;;5042796;28;20068;-80
2023/05/08 07:24:34;;;;;;;9.48;7.75;;;15.80;99.90;;;;;;5041806;28;20091;-79
2023/05/08 07:27:00;;;;;;;9.55;8.23;;;15.90;99.90;;;;;;5046124;28;20090;-79
2023/05/08 07:29:25;;;;;;;8.45;7.80;;;15.80;99.90;;;;;;5045998;28;20041;-79
2023/05/08 07:31:51;;;;;;;7.97;7.28;;;15.70;99.90;;;;;;5044747;28;20045;-80
2023/05/08 07:34:17;;;;;;;9.40;8.60;;;15.90;99.90;;;;;;5046474;28;20057;-80
2023/05/08 07:36:43;;;;;;;8.90;8.20;;;15.90;99.90;;;;;;5043843;28;20048;-79
2023/05/08 07:39:08;;;;;;;9.25;8.35;;;15.90;99.90;;;;;;5042415;28;20380;-80
2023/05/08 07:41:35;;;;;;;8.55;7.85;;;15.80;99.90;;;;;;5041132;28;20116;-80
2023/05/08 07:44:02;;;;;;;8.65;7.65;;;16.00;99.90;;;;;;5043176;28;20053;-80
2023/05/08 07:46:27;;;;;;;8.32;7.63;;;16.00;99.90;;;;;;5040354;28;20041;-80
2023/05/08 07:48:53;;;;;;;9.48;8.60;;;16.10;99.90;;;;;;5041883;28;20407;-80
2023/05/08 07:51:18;;;;;;;10.43;8.85;;;16.00;99.90;;;;;;5039535;28;20049;-80
2023/05/08 07:53:44;;;;;;;8.95;8.25;;;16.00;99.90;;;;;;5040979;28;20037;-80
2023/05/08 07:56:09;;;;;;;10.25;9.32;;;16.00;99.90;;;;;;5041743;28;20048;-79
2023/05/08 07:58:35;;;;;;;8.85;8.05;;;16.20;99.90;;;;;;5058165;28;20048;-80
2023/05/08 08:01:01;;;;;;;8.30;7.60;;;16.50;99.90;;;;;;5043072;28;20111;-80
2023/05/08 08:03:26;;;;;;;9.32;8.35;;;16.90;99.90;;;;;;5043124;28;20033;-80
2023/05/08 08:05:52;;;;;;;8.93;8.05;;;17.40;99.90;;;;;;5047056;28;20124;-81
2023/05/08 08:08:17;;;;;;;9.38;8.57;;;17.70;99.90;;;;;;5039570;28;20044;-80
2023/05/08 08:10:43;;;;;;;8.50;7.80;;;17.90;99.90;;;;;;5043009;28;20037;-80
2023/05/08 08:13:08;;;;;;;10.05;8.02;;;18.20;99.90;;;;;;5041310;28;20128;-80
2023/05/08 08:15:34;;;;;;;9.27;8.48;;;18.40;99.90;;;;;;5040082;28;20531;-80
2023/05/08 08:18:00;;;;;;;9.40;8.50;;;18.30;99.90;;;;;;5041401;28;20055;-80
2023/05/08 08:20:26;;;;;;;9.45;8.55;;;18.00;99.90;;;;;;5040162;28;20052;-80
2023/05/08 08:22:52;;;;;;;9.80;8.98;;;18.00;99.90;;;;;;5039383;28;20052;-80
2023/05/08 08:25:18;;;;;;;10.07;9.25;;;18.10;99.90;;;;;;5042520;28;20527;-80
2023/05/08 08:27:43;;;;;;;8.55;7.75;;;18.40;99.90;;;;;;5039759;28;20048;-80
2023/05/08 08:30:09;;;;;;;9.52;8.57;;;18.70;99.90;;;;;;5043331;28;20075;-80
2023/05/08 08:32:34;;;;;;;11.10;9.43;;;18.70;99.90;;;;;;5043561;28;20091;-80
2023/05/08 08:35:00;;;;;;;8.85;8.15;;;18.60;99.90;;;;;;5042873;28;20072;-80
2023/05/08 08:37:26;;;;;;;9.05;8.23;;;18.90;99.90;;;;;;5042616;28;20041;-80
2023/05/08 08:39:52;;;;;;;9.57;8.77;;;19.10;99.90;;;;;;5042337;28;20403;-80
2023/05/08 08:42:17;;;;;;;9.50;8.70;;;19.10;99.90;;;;;;5043005;28;20044;-80
2023/05/08 08:44:43;;;;;;;9.13;8.32;;;19.20;99.90;;;;;;5044151;28;20744;-80
2023/05/08 08:47:11;;;;;;;9.48;8.43;;;19.30;99.90;;;;;;5042869;28;20048;-81
2023/05/08 08:49:45;;;;;;;10.45;9.55;;;19.10;99.90;;;;;;5040170;28;20063;-80
2023/05/08 08:52:24;;;;;;;9.23;8.55;;;19.00;99.90;;;;;;5044718;28;20041;-80
2023/05/08 08:54:50;;;;;;;10.07;9.27;;;19.20;99.90;;;;;;5044006;28;20044;-80
2023/05/08 08:57:17;;;;;;;10.48;8.93;;;18.80;99.90;;;;;;5039335;28;20159;-80
2023/05/08 08:59:43;;;;;;;10.70;9.73;;;18.80;99.90;;;;;;5042802;28;20037;-80
2023/05/08 09:02:13;;;;;;;10.23;9.50;;;18.80;99.90;;;;;;5043146;28;20083;-80
2023/05/08 09:04:39;;;;;;;10.68;9.73;;;18.70;99.90;;;;;;5042181;28;20040;-80
2023/05/08 09:07:07;;;;;;;10.15;9.35;;;18.80;99.90;;;;;;5040669;28;20042;-80
2023/05/08 09:09:34;;;;;;;10.40;9.40;;;18.90;99.90;;;;;;5041361;28;20041;-80
2023/05/08 09:12:01;;;;;;;11.52;10.10;;;18.80;99.90;;;;;;5041046;28;20053;-79
2023/05/08 09:14:26;;;;;;;10.65;9.55;;;18.70;99.90;;;;;;5044879;28;20119;-80
2023/05/08 09:16:55;;;;;;;11.18;10.32;;;18.70;99.90;;;;;;5058754;28;20072;-80
2023/05/08 09:19:21;;;;;;;10.25;9.45;;;18.70;99.90;;;;;;5045209;28;20040;-80
2023/05/08 09:21:48;;;;;;;10.57;9.68;;;18.60;99.90;;;;;;5044549;28;20045;-80
2023/05/08 09:24:13;;;;;;;10.85;10.05;;;18.50;99.90;;;;;;5046477;28;20055;-80
2023/05/08 09:26:40;;;;;;;14.02;10.15;;;18.50;99.90;;;;;;5045481;28;20046;-80
2023/05/08 09:29:09;;;;;;;10.90;9.95;;;18.60;99.90;;;;;;5044128;28;20095;-80
2023/05/08 09:31:38;;;;;;;10.00;8.98;;;18.60;99.90;;;;;;5044578;28;20056;-80
2023/05/08 09:34:06;;;;;;;11.57;10.57;;;18.70;99.90;;;;;;5040964;28;20099;-80
2023/05/08 09:36:33;;;;;;;11.48;10.45;;;18.90;99.90;;;;;;5045445;28;20083;-80
2023/05/08 09:39:00;;;;;;;10.40;9.18;;;18.70;99.90;;;;;;5044229;28;20037;-80
2023/05/08 09:41:26;;;;;;;10.73;9.88;;;18.70;99.90;;;;;;5046201;28;20044;-80
2023/05/08 09:44:06;;;;;;;10.35;9.45;;;18.90;99.90;;;;;;5045588;28;20095;-80
2023/05/08 09:46:33;;;;;;;11.85;10.82;;;19.10;99.90;;;;;;5045634;28;20115;-80
2023/05/08 09:49:01;;;;;;;10.02;9.23;;;19.30;99.90;;;;;;5043042;28;20080;-81
2023/05/08 09:51:28;;;;;;;10.93;10.05;;;19.70;99.90;;;;;;5046033;28;20091;-80
2023/05/08 09:53:56;;;;;;;11.18;10.32;;;19.80;99.90;;;;;;5044732;28;20094;-81
2023/05/08 09:56:31;;;;;;;11.00;9.93;;;20.10;99.90;;;;;;5048073;28;20699;-81
2023/05/08 09:58:57;;;;;;;11.93;10.80;;;20.10;99.90;;;;;;5048979;28;20041;-80
2023/05/08 10:01:34;;;;;;;11.43;10.43;;;20.30;99.90;;;;;;5045243;28;20036;-80
2023/05/08 10:04:00;;;;;;;10.95;10.10;;;20.30;99.90;;;;;;5047887;28;20098;-80
2023/05/08 10:06:27;;;;;;;11.13;10.23;;;20.30;99.90;;;;;;5044999;28;20156;-80
2023/05/08 10:09:12;;;;;;;10.32;9.55;;;20.50;99.90;;;;;;5048452;28;20033;-80
2023/05/08 10:11:51;;;;;;;12.23;11.00;;;20.90;99.90;;;;;;5045126;28;21236;-81
2023/05/08 10:14:17;;;;;;;10.65;9.73;;;21.10;99.90;;;;;;5047709;28;20037;-80
2023/05/08 10:16:45;;;;;;;11.07;9.98;;;21.40;99.90;;;;;;5043436;28;20048;-81
2023/05/08 10:19:16;;;;;;;11.13;10.02;;;21.30;99.90;;;;;;5043789;28;20048;-81
2023/05/08 10:21:48;;;;;;;13.82;10.40;;;21.60;99.90;;;;;;5062086;28;20082;-81
2023/05/08 10:24:20;;;;;;;11.20;10.25;;;21.70;99.90;;;;;;5047004;28;20044;-80
2023/05/08 10:27:02;;;;;;;11.48;10.50;;;21.70;99.90;;;;;;5050189;28;20514;-80
2023/05/08 10:29:55;;;;;;;11.25;10.25;;;22.00;99.90;;;;;;5045712;28;20053;-81
2023/05/08 10:32:23;;;;;;;11.60;10.63;;;22.10;99.90;;;;;;5040721;28;20049;-81
2023/05/08 10:34:57;;;;;;;13.73;10.68;;;22.00;99.90;;;;;;5041733;28;20029;-82
2023/05/08 10:37:23;;;;;;;11.93;10.93;;;22.10;99.90;;;;;;5041196;28;21027;-82
2023/05/08 10:39:50;;;;;;;11.02;10.02;;;22.40;99.90;;;;;;5043340;28;20084;-82
2023/05/08 10:42:16;;;;;;;11.60;10.52;;;22.60;99.90;;;;;;5045859;28;20438;-82
2023/05/08 10:44:42;;;;;;;10.82;9.32;;;22.70;99.90;;;;;;5042512;28;20049;-81
2023/05/08 10:47:46;;;;;;;11.10;10.15;;;22.80;99.90;;;;;;5076561;28;20079;-81
2023/05/08 10:50:31;;;;;;;11.85;10.85;;;22.90;99.90;;;;;;5041630;28;20045;-82
2023/05/08 10:53:14;;;;;;;12.82;11.82;;;21.90;99.90;;;;;;5041211;28;20080;-81
2023/05/08 10:55:43;;;;;;;13.35;12.25;;;21.90;99.90;;;;;;5040515;28;20095;-82
2023/05/08 10:58:31;;;;;;;12.00;10.85;;;21.70;99.90;;;;;;5041664;28;20045;-82
2023/05/08 11:01:04;;;;;;;16.63;11.10;;;21.80;99.90;;;;;;5045591;28;20045;-81
2023/05/08 11:03:32;;;;;;;11.40;10.30;;;21.90;99.90;;;;;;5042985;28;20124;-81
2023/05/08 11:05:59;;;;;;;10.75;9.75;;;22.20;99.90;;;;;;5043694;28;20464;-82
2023/05/08 11:08:27;;;;;;;11.43;10.27;;;22.20;99.90;;;;;;5044325;28;20743;-82
2023/05/08 11:11:03;;;;;;;12.02;10.98;;;22.10;99.90;;;;;;5045387;28;20064;-81
2023/05/08 11:13:35;;;;;;;11.77;10.77;;;22.30;99.90;;;;;;5043002;28;20045;-81
2023/05/08 11:16:02;;;;;;;11.70;10.70;;;22.50;99.90;;;;;;5044057;28;20041;-81
2023/05/08 11:18:28;;;;;;;13.63;12.27;;;22.70;99.90;;;;;;5044034;28;20045;-81
2023/05/08 11:21:02;;;;;;;12.85;11.43;;;22.90;99.90;;;;;;5044384;28;20034;-81
2023/05/08 11:23:37;;;;;;;12.30;11.10;;;23.00;99.90;;;;;;5075278;28;20048;-81
2023/05/08 11:26:15;;;;;;;11.27;10.18;;;23.10;99.90;;;;;;5042252;28;20041;-81
2023/05/08 11:29:01;;;;;;;11.13;10.13;;;23.20;99.90;;;;;;5042121;28;20623;-81
2023/05/08 11:31:49;;;;;;;12.02;11.02;;;23.40;99.90;;;;;;5043577;28;20072;-81
2023/05/08 11:34:42;;;;;;;13.93;12.68;;;23.10;99.90;;;;;;5043604;28;20095;-81
2023/05/08 11:37:09;;;;;;;14.85;12.18;;;23.40;99.90;;;;;;5045932;28;20055;-81
2023/05/08 11:39:35;;;;;;;13.43;12.30;;;23.40;99.90;;;;;;5042710;28;21904;-81
2023/05/08 11:42:28;;;;;;;14.65;13.30;;;23.40;99.90;;;;;;5042905;28;20044;-81
2023/05/08 11:45:13;;;;;;;15.38;13.82;;;23.20;99.90;;;;;;5042159;28;20037;-81
2023/05/08 11:47:43;;;;;;;13.95;12.95;;;23.20;99.90;;;;;;5041844;28;20037;-81
2023/05/08 11:50:12;;;;;;;16.48;15.00;;;22.80;99.90;;;;;;5057657;28;20045;-81
2023/05/08 11:52:40;;;;;;;14.77;13.68;;;22.60;99.90;;;;;;5039458;28;20086;-82
2023/05/08 11:55:09;;;;;;;15.57;14.38;;;22.50;99.90;;;;;;5042391;28;20092;-82
2023/05/08 11:57:35;;;;;;;14.77;13.30;;;22.30;99.90;;;;;;5056173;28;20073;-82
2023/05/08 12:00:08;;;;;;;11.50;10.50;;;22.50;99.90;;;;;;5040505;28;20553;-82
2023/05/08 12:02:38;;;;;;;10.45;9.65;;;22.40;99.90;;;;;;5027879;28;20049;-83
2023/05/08 12:05:05;;;;;;;10.82;9.93;;;22.60;99.90;;;;;;5046257;28;20059;-83
2023/05/08 12:07:30;;;;;;;9.98;9.18;;;22.90;99.90;;;;;;5025124;28;20037;-83
2023/05/08 12:09:56;;;;;;;11.43;10.52;;;23.00;99.90;;;;;;5038238;28;20380;-85
2023/05/08 12:12:34;;;;;;;14.82;13.52;;;23.10;99.90;;;;;;5019228;28;20060;-84
2023/05/08 12:14:59;;;;;;;16.45;13.38;;;23.10;99.90;;;;;;5042276;28;20492;-82
2023/05/08 12:17:25;;;;;;;12.50;11.50;;;23.20;99.90;;;;;;5045530;28;20051;-79
2023/05/08 12:19:54;;;;;;;13.45;12.25;;;23.20;99.90;;;;;;5043283;28;20044;-76
2023/05/08 12:22:20;;;;;;;14.45;13.32;;;23.10;99.90;;;;;;5056312;28;20049;-80
2023/05/08 12:24:46;;;;;;;11.52;10.48;;;23.20;99.90;;;;;;5058387;28;20833;-81
2023/05/08 12:27:12;;;;;;;12.75;10.75;;;23.00;99.90;;;;;;5042566;28;20033;-80
2023/05/08 12:29:37;;;;;;;10.02;9.10;;;23.10;99.90;;;;;;5041603;28;20410;-80
2023/05/08 12:32:03;;;;;;;12.55;11.07;;;23.20;99.90;;;;;;5045285;28;20063;-78
2023/05/08 12:34:29;;;;;;;11.60;10.50;;;23.10;99.90;;;;;;5042277;28;20037;-79
2023/05/08 12:37:02;;;;;;;10.95;10.05;;;23.00;99.90;;;;;;5042212;28;20048;-80
2023/05/08 12:39:33;;;;;;;10.73;9.63;;;23.20;99.90;;;;;;5073773;28;20036;-79
2023/05/08 12:41:58;;;;;;;11.20;10.20;;;23.30;99.90;;;;;;5041672;28;20044;-80
2023/05/08 12:44:25;;;;;;;12.23;11.10;;;23.20;99.90;;;;;;5039142;28;20038;-77